Time;durP1;ratioP1;P1;durP2;ratioP2;P2;SDS_P1;SDS_P2;PMS_P1;PMS_P2;Temp;Humidity;BMP_temperature;BMP_pressure;BME280_temperature;BME280_humidity;BME280_pressure;Samples;Min_cycle;Max_cycle;Signal;HPM_P1;HPM_P2
2023/06/29 00:01:29;;;;;;;;;40.00;30.00;;;;;;;;5078322;27;45524;-85
2023/06/29 00:03:54;;;;;;;;;54.33;40.00;;;;;;;;5077217;27;45389;-85
2023/06/29 00:06:19;;;;;;;;;61.33;41.67;;;;;;;;5077381;27;45296;-85
2023/06/29 00:08:47;;;;;;;;;58.33;43.00;;;;;;;;5078443;28;45344;-84
2023/06/29 00:11:12;;;;;;;;;51.75;34.25;;;;;;;;5077926;27;45504;-84
2023/06/29 00:13:37;;;;;;;;;46.75;31.50;;;;;;;;5077806;27;45494;-85
2023/06/29 00:16:03;;;;;;;;;47.00;32.67;;;;;;;;5076504;27;45510;-85
2023/06/29 00:18:28;;;;;;;;;48.00;33.50;;;;;;;;5078013;27;45370;-85
2023/06/29 00:20:54;;;;;;;;;46.00;34.00;;;;;;;;5076610;28;45579;-85
2023/06/29 00:23:19;;;;;;;;;54.25;39.50;;;;;;;;5077351;28;45650;-85
2023/06/29 00:25:47;;;;;;;;;57.50;41.25;;;;;;;;5076171;28;45520;-85
2023/06/29 00:28:12;;;;;;;;;53.50;41.00;;;;;;;;5077900;27;45309;-85
2023/06/29 00:30:37;;;;;;;;;53.33;37.00;;;;;;;;5077801;27;45290;-86
2023/06/29 00:33:02;;;;;;;;;45.33;33.33;;;;;;;;5077577;27;45411;-85
2023/06/29 00:35:27;;;;;;;;;46.50;32.25;;;;;;;;5077358;27;45312;-85
2023/06/29 00:37:53;;;;;;;;;41.33;32.67;;;;;;;;5077558;28;45451;-85
2023/06/29 00:40:18;;;;;;;;;45.67;34.00;;;;;;;;5077713;28;45382;-85
2023/06/29 00:42:43;;;;;;;;;53.00;39.00;;;;;;;;5077301;28;45393;-85
2023/06/29 00:45:08;;;;;;;;;52.67;40.00;;;;;;;;5077030;28;45581;-84
2023/06/29 00:47:34;;;;;;;;;56.25;40.00;;;;;;;;5077531;27;45566;-84
2023/06/29 00:50:00;;;;;;;;;49.25;35.50;;;;;;;;5077446;27;45520;-85
2023/06/29 00:52:26;;;;;;;;;45.75;30.50;;;;;;;;5076579;27;46410;-85
2023/06/29 00:54:53;;;;;;;;;56.00;41.50;;;;;;;;5077270;28;45312;-84
2023/06/29 00:57:19;;;;;;;;;61.00;44.25;;;;;;;;5077354;27;45240;-85
2023/06/29 00:59:44;;;;;;;;;57.75;42.75;;;;;;;;5076983;28;45455;-84
2023/06/29 01:02:10;;;;;;;;;45.67;38.00;;;;;;;;5077122;27;46409;-84
2023/06/29 01:04:36;;;;;;;;;58.33;45.00;;;;;;;;5075020;28;45338;-85
2023/06/29 01:07:09;;;;;;;;;61.25;43.50;;;;;;;;5076683;28;45365;-85
2023/06/29 01:09:35;;;;;;;;;62.00;46.25;;;;;;;;5077226;28;45432;-84
2023/06/29 01:12:02;;;;;;;;;54.50;40.75;;;;;;;;5077072;28;46279;-84
2023/06/29 01:14:30;;;;;;;;;60.00;43.00;;;;;;;;5076513;28;45398;-82
2023/06/29 01:16:56;;;;;;;;;52.00;39.50;;;;;;;;5077057;27;45417;-84
2023/06/29 01:19:25;;;;;;;;;54.00;39.00;;;;;;;;5076914;27;45328;-85
2023/06/29 01:21:54;;;;;;;;;48.75;38.50;;;;;;;;5076397;27;47207;-85
2023/06/29 01:24:22;;;;;;;;;52.50;37.75;;;;;;;;5076599;27;45886;-84
2023/06/29 01:26:49;;;;;;;;;47.00;36.25;;;;;;;;5076708;28;45394;-84
2023/06/29 01:29:14;;;;;;;;;49.25;35.50;;;;;;;;5076914;28;45346;-85
2023/06/29 01:31:39;;;;;;;;;47.33;35.33;;;;;;;;5076742;28;45439;-84
2023/06/29 01:34:05;;;;;;;;;50.67;34.67;;;;;;;;5076403;28;45498;-84
2023/06/29 01:36:33;;;;;;;;;53.25;34.75;;;;;;;;5076536;27;45373;-85
2023/06/29 01:39:24;;;;;;;;;47.25;35.75;;;;;;;;5076916;27;45388;-84
2023/06/29 01:41:50;;;;;;;;;50.00;37.25;;;;;;;;5074153;28;46533;-85
2023/06/29 01:44:16;;;;;;;;;50.75;35.75;;;;;;;;5076293;27;45348;-84
2023/06/29 01:46:42;;;;;;;;;59.50;41.00;;;;;;;;5076642;28;45214;-85
2023/06/29 01:49:07;;;;;;;;;48.75;34.00;;;;;;;;5076647;28;45344;-85
2023/06/29 01:51:33;;;;;;;;;52.33;38.33;;;;;;;;5076034;28;45253;-84
2023/06/29 01:53:58;;;;;;;;;50.00;35.67;;;;;;;;5075652;28;45414;-85
2023/06/29 01:56:23;;;;;;;;;54.00;39.67;;;;;;;;5076047;27;45352;-84
2023/06/29 01:58:48;;;;;;;;;46.00;37.00;;;;;;;;5075211;28;45341;-83
2023/06/29 02:01:13;;;;;;;;;53.67;40.00;;;;;;;;5076161;27;46102;-82
2023/06/29 02:03:39;;;;;;;;;48.33;34.00;;;;;;;;5075766;27;45253;-83
2023/06/29 02:06:04;;;;;;;;;50.33;39.33;;;;;;;;5076097;28;45334;-83
2023/06/29 02:08:29;;;;;;;;;54.33;37.00;;;;;;;;5076115;27;45244;-84
2023/06/29 02:10:54;;;;;;;;;49.67;36.33;;;;;;;;5076044;28;45470;-84
2023/06/29 02:13:19;;;;;;;;;37.00;26.67;;;;;;;;5075829;28;45568;-84
2023/06/29 02:15:45;;;;;;;;;45.67;36.33;;;;;;;;5076299;27;45366;-84
2023/06/29 02:18:10;;;;;;;;;45.33;36.00;;;;;;;;5076200;27;45548;-84
2023/06/29 02:20:35;;;;;;;;;51.33;36.67;;;;;;;;5075502;27;47127;-84
2023/06/29 02:23:00;;;;;;;;;62.67;45.00;;;;;;;;5075759;27;45441;-84
2023/06/29 02:25:25;;;;;;;;;56.00;41.00;;;;;;;;5076055;28;45975;-84
2023/06/29 02:27:51;;;;;;;;;55.67;39.00;;;;;;;;5076031;28;45396;-84
2023/06/29 02:30:16;;;;;;;;;48.00;38.00;;;;;;;;5074509;28;46522;-84
2023/06/29 02:32:41;;;;;;;;;49.00;36.00;;;;;;;;5075974;28;45379;-84
2023/06/29 02:35:06;;;;;;;;;46.00;33.33;;;;;;;;5075165;28;45461;-85
2023/06/29 02:37:31;;;;;;;;;46.75;33.00;;;;;;;;5075766;27;45310;-84
2023/06/29 02:39:57;;;;;;;;;42.67;31.67;;;;;;;;5078273;27;46503;-84
2023/06/29 02:42:22;;;;;;;;;32.67;23.00;;;;;;;;5079579;27;45417;-85
2023/06/29 02:44:47;;;;;;;;;39.50;30.00;;;;;;;;5079241;27;45338;-84
2023/06/29 02:47:12;;;;;;;;;41.00;31.00;;;;;;;;5078122;28;45410;-85
2023/06/29 02:49:38;;;;;;;;;43.67;33.00;;;;;;;;5078819;28;46738;-83
2023/06/29 02:52:03;;;;;;;;;44.33;31.33;;;;;;;;5078074;28;45818;-83
2023/06/29 02:54:28;;;;;;;;;42.50;32.00;;;;;;;;5078943;28;45379;-84
2023/06/29 02:56:53;;;;;;;;;33.67;24.33;;;;;;;;5078955;27;45310;-83
2023/06/29 02:59:18;;;;;;;;;34.00;27.33;;;;;;;;5079125;27;46097;-82
2023/06/29 03:01:44;;;;;;;;;35.00;24.67;;;;;;;;5079202;27;45444;-83
2023/06/29 03:04:09;;;;;;;;;36.00;25.33;;;;;;;;5078637;27;45351;-83
2023/06/29 03:06:34;;;;;;;;;30.00;18.33;;;;;;;;5079160;28;45453;-83
2023/06/29 03:08:59;;;;;;;;;31.67;19.67;;;;;;;;5078951;28;46422;-83
2023/06/29 03:11:24;;;;;;;;;21.67;15.67;;;;;;;;5078930;28;45323;-83
2023/06/29 03:13:50;;;;;;;;;21.00;16.00;;;;;;;;5078713;28;45611;-83
2023/06/29 03:16:16;;;;;;;;;23.75;20.00;;;;;;;;5079011;28;45452;-83
2023/06/29 03:18:41;;;;;;;;;22.00;20.25;;;;;;;;5078397;27;45353;-83
2023/06/29 03:21:06;;;;;;;;;30.67;22.67;;;;;;;;5078923;28;45309;-84
2023/06/29 03:23:31;;;;;;;;;34.00;22.00;;;;;;;;5078618;28;45417;-84
2023/06/29 03:25:57;;;;;;;;;24.67;19.00;;;;;;;;5078884;27;45367;-84
2023/06/29 03:28:22;;;;;;;;;26.67;19.00;;;;;;;;5078603;27;46597;-84
2023/06/29 03:30:47;;;;;;;;;28.67;18.00;;;;;;;;5078807;27;45263;-84
2023/06/29 03:33:13;;;;;;;;;25.33;17.00;;;;;;;;5078476;27;45336;-84
2023/06/29 03:35:38;;;;;;;;;23.25;18.25;;;;;;;;5077878;27;45446;-84
2023/06/29 03:38:07;;;;;;;;;32.00;23.33;;;;;;;;5078549;28;46481;-84
2023/06/29 03:40:32;;;;;;;;;19.25;12.50;;;;;;;;5078491;28;45299;-84
2023/06/29 03:42:57;;;;;;;;;22.00;14.75;;;;;;;;5077174;28;45487;-84
2023/06/29 03:45:23;;;;;;;;;27.33;15.00;;;;;;;;5078292;28;45342;-84
2023/06/29 03:47:48;;;;;;;;;21.67;16.67;;;;;;;;5077976;27;45575;-85
2023/06/29 03:50:13;;;;;;;;;16.67;12.67;;;;;;;;5078463;27;45302;-85
2023/06/29 03:52:38;;;;;;;;;22.00;14.00;;;;;;;;5078426;27;45366;-82
2023/06/29 03:55:04;;;;;;;;;26.00;16.00;;;;;;;;5078222;27;45332;-85
2023/06/29 03:57:29;;;;;;;;;22.50;13.00;;;;;;;;5077660;28;46199;-85
2023/06/29 03:59:54;;;;;;;;;23.00;22.00;;;;;;;;5078188;28;45267;-84
2023/06/29 04:02:19;;;;;;;;;23.50;16.75;;;;;;;;5077910;28;45291;-84
2023/06/29 04:04:45;;;;;;;;;25.33;18.00;;;;;;;;5078045;28;45334;-85
2023/06/29 04:07:10;;;;;;;;;20.75;18.75;;;;;;;;5077916;27;46253;-86
2023/06/29 04:09:36;;;;;;;;;17.67;14.33;;;;;;;;5078457;27;45199;-85
2023/06/29 04:12:01;;;;;;;;;23.00;18.33;;;;;;;;5077983;27;45231;-83
2023/06/29 04:14:26;;;;;;;;;27.00;18.00;;;;;;;;5077690;27;45150;-83
2023/06/29 04:16:51;;;;;;;;;21.33;19.00;;;;;;;;5076317;28;48350;-83
2023/06/29 04:19:16;;;;;;;;;28.33;20.33;;;;;;;;5078008;28;45268;-83
2023/06/29 04:21:42;;;;;;;;;29.67;17.33;;;;;;;;5078011;28;45449;-83
2023/06/29 04:24:07;;;;;;;;;14.25;10.25;;;;;;;;5076461;28;45386;-83
2023/06/29 04:26:33;;;;;;;;;26.33;18.00;;;;;;;;5077591;27;47034;-83
2023/06/29 04:29:02;;;;;;;;;24.00;16.50;;;;;;;;5077908;27;45308;-83
2023/06/29 04:31:31;;;;;;;;;20.75;17.00;;;;;;;;5077577;27;45505;-84
2023/06/29 04:33:57;;;;;;;;;22.50;20.50;;;;;;;;5077532;27;45542;-83
2023/06/29 04:36:23;;;;;;;;;23.25;17.75;;;;;;;;5077632;28;46035;-83
2023/06/29 04:38:48;;;;;;;;;22.00;16.67;;;;;;;;5077872;28;45468;-83
2023/06/29 04:41:13;;;;;;;;;19.00;15.67;;;;;;;;5077753;28;45145;-83
2023/06/29 04:43:39;;;;;;;;;23.00;15.00;;;;;;;;5077615;28;45613;-83
2023/06/29 04:46:04;;;;;;;;;14.75;12.75;;;;;;;;5056817;28;46483;-83
2023/06/29 04:48:36;;;;;;;;;16.33;15.33;;;;;;;;5057313;28;45456;-84
2023/06/29 04:51:02;;;;;;;;;16.50;14.50;;;;;;;;5057384;28;45316;-85
2023/06/29 04:53:28;;;;;;;;;17.25;13.75;;;;;;;;5057370;28;45197;-84
2023/06/29 04:55:53;;;;;;;;;17.25;12.50;;;;;;;;5075741;28;46598;-84
2023/06/29 04:58:19;;;;;;;;;17.00;12.25;;;;;;;;5077437;28;45714;-84
2023/06/29 05:00:44;;;;;;;;;13.00;11.33;;;;;;;;5077241;28;45314;-85
2023/06/29 05:03:09;;;;;;;;;20.00;13.00;;;;;;;;5076706;28;45468;-85
2023/06/29 05:05:34;;;;;;;;;18.67;11.00;;;;;;;;5075882;28;47254;-84
2023/06/29 05:07:59;;;;;;;;;16.00;12.00;;;;;;;;5077182;27;45533;-85
2023/06/29 05:10:24;;;;;;;;;19.00;12.33;;;;;;;;5075866;28;45323;-85
2023/06/29 05:12:50;;;;;;;;;29.33;16.00;;;;;;;;5077444;28;45347;-84
2023/06/29 05:15:15;;;;;;;;;18.00;13.00;;;;;;;;5075665;27;46464;-84
2023/06/29 05:17:41;;;;;;;;;16.00;13.00;;;;;;;;5076999;27;45471;-81
2023/06/29 05:20:08;;;;;;;;;12.75;12.00;;;;;;;;5077146;27;45359;-82
2023/06/29 05:22:33;;;;;;;;;16.50;14.75;;;;;;;;5077020;27;45359;-82
2023/06/29 05:24:58;;;;;;;;;17.00;12.00;;;;;;;;5075431;27;46001;-81
2023/06/29 05:27:24;;;;;;;;;14.33;11.67;;;;;;;;5076468;27;45477;-82
2023/06/29 05:29:49;;;;;;;;;18.33;12.67;;;;;;;;5076735;27;45385;-78
2023/06/29 05:32:14;;;;;;;;;17.00;12.33;;;;;;;;5076941;27;45518;-80
2023/06/29 05:34:39;;;;;;;;;19.00;13.00;;;;;;;;5076574;28;47276;-82
2023/06/29 05:37:04;;;;;;;;;12.00;9.67;;;;;;;;5077047;28;45377;-80
2023/06/29 05:39:29;;;;;;;;;11.67;10.67;;;;;;;;5076745;28;45439;-80
2023/06/29 05:41:55;;;;;;;;;12.33;10.00;;;;;;;;5076854;28;45417;-80
2023/06/29 05:44:20;;;;;;;;;22.00;14.00;;;;;;;;5076125;28;46154;-80
2023/06/29 05:46:45;;;;;;;;;15.00;11.00;;;;;;;;5075408;28;45360;-82
2023/06/29 05:49:10;;;;;;;;;17.67;13.33;;;;;;;;5076997;27;45337;-80
2023/06/29 05:51:37;;;;;;;;;18.67;13.00;;;;;;;;5074000;27;45507;-79
2023/06/29 05:54:03;;;;;;;;;16.00;12.25;;;;;;;;5076275;28;47029;-80
2023/06/29 05:56:28;;;;;;;;;16.25;12.25;;;;;;;;5076151;27;45360;-78
2023/06/29 05:58:53;;;;;;;;;19.33;12.00;;;;;;;;5059111;28;45254;-83
2023/06/29 06:01:19;;;;;;;;;21.00;12.33;;;;;;;;5056200;28;45520;-83
2023/06/29 06:03:44;;;;;;;;;15.33;12.67;;;;;;;;5051048;28;45403;-83
2023/06/29 06:06:09;;;;;;;;;16.50;11.75;;;;;;;;5066248;28;45216;-81
2023/06/29 06:08:35;;;;;;;;;21.75;13.75;;;;;;;;5058303;28;45518;-80
2023/06/29 06:11:01;;;;;;;;;21.67;15.33;;;;;;;;5075510;28;45486;-80
2023/06/29 06:13:26;;;;;;;;;20.75;12.25;;;;;;;;5068229;28;47090;-79
2023/06/29 06:15:51;;;;;;;;;19.00;13.00;;;;;;;;5062602;28;45284;-79
2023/06/29 06:18:16;;;;;;;;;20.00;12.33;;;;;;;;5076389;28;45320;-80
2023/06/29 06:20:41;;;;;;;;;23.67;14.00;;;;;;;;5076402;28;45409;-80
2023/06/29 06:23:06;;;;;;;;;10.00;8.00;;;;;;;;5048342;28;45948;-79
2023/06/29 06:25:32;;;;;;;;;15.00;12.00;;;;;;;;5053207;28;45332;-80
2023/06/29 06:27:57;;;;;;;;;16.67;13.00;;;;;;;;5049216;28;45788;-81
2023/06/29 06:30:23;;;;;;;;;15.67;10.33;;;;;;;;5057525;28;45410;-81
2023/06/29 06:32:49;;;;;;;;;13.25;12.00;;;;;;;;5053199;28;47219;-79
2023/06/29 06:35:16;;;;;;;;;14.75;10.25;;;;;;;;5051407;28;46021;-78
2023/06/29 06:37:41;;;;;;;;;17.75;13.75;;;;;;;;5052516;28;46247;-79
2023/06/29 06:40:07;;;;;;;;;13.75;11.75;;;;;;;;5048976;28;45721;-80
2023/06/29 06:42:33;;;;;;;;;10.00;8.50;;;;;;;;5053611;28;46292;-80
2023/06/29 06:45:00;;;;;;;;;16.75;10.25;;;;;;;;5053604;28;45808;-80
2023/06/29 06:47:25;;;;;;;;;17.25;11.75;;;;;;;;5053697;28;45901;-82
2023/06/29 06:49:51;;;;;;;;;19.00;10.67;;;;;;;;5042587;28;45555;-80
2023/06/29 06:52:16;;;;;;;;;17.67;13.33;;;;;;;;5053418;28;45431;-79
2023/06/29 06:54:41;;;;;;;;;15.33;10.00;;;;;;;;5048402;28;45491;-79
2023/06/29 06:57:06;;;;;;;;;19.75;13.75;;;;;;;;5063773;27;45480;-79
2023/06/29 06:59:31;;;;;;;;;18.33;13.00;;;;;;;;5071358;27;45399;-79
2023/06/29 07:01:57;;;;;;;;;21.00;12.67;;;;;;;;5071302;28;46536;-78
2023/06/29 07:04:22;;;;;;;;;8.67;5.33;;;;;;;;5074030;27;45374;-79
2023/06/29 07:06:47;;;;;;;;;21.67;13.67;;;;;;;;5073314;27;45495;-79
2023/06/29 07:09:12;;;;;;;;;23.33;12.00;;;;;;;;5074087;28;45490;-80
2023/06/29 07:11:37;;;;;;;;;19.33;11.67;;;;;;;;5073231;27;45611;-79
2023/06/29 07:14:03;;;;;;;;;24.25;13.50;;;;;;;;5071858;27;45484;-79
2023/06/29 07:16:28;;;;;;;;;14.25;12.25;;;;;;;;5073795;27;45434;-82
2023/06/29 07:19:11;;;;;;;;;17.67;14.00;;;;;;;;5072663;27;45495;-80
2023/06/29 07:21:36;;;;;;;;;13.25;11.25;;;;;;;;5072552;27;45489;-80
2023/06/29 07:24:02;;;;;;;;;27.00;13.33;;;;;;;;5072935;27;45502;-80
2023/06/29 07:26:27;;;;;;;;;16.25;11.25;;;;;;;;5075181;27;45597;-80
2023/06/29 07:28:52;;;;;;;;;22.33;15.00;;;;;;;;5079992;27;45729;-80
2023/06/29 07:31:21;;;;;;;;;17.67;13.00;;;;;;;;5082610;27;46273;-80
2023/06/29 07:33:47;;;;;;;;;15.75;12.75;;;;;;;;5081089;27;45399;-80
2023/06/29 07:36:12;;;;;;;;;12.00;8.00;;;;;;;;5079706;27;45280;-79
2023/06/29 07:38:37;;;;;;;;;21.67;15.00;;;;;;;;5077498;27;45228;-79
2023/06/29 07:41:04;;;;;;;;;18.67;16.00;;;;;;;;5082669;27;46296;-80
2023/06/29 07:43:30;;;;;;;;;14.25;10.25;;;;;;;;5081133;27;46187;-80
2023/06/29 07:45:55;;;;;;;;;12.67;11.33;;;;;;;;5076903;27;45518;-79
2023/06/29 07:48:20;;;;;;;;;16.50;11.25;;;;;;;;5069870;27;45353;-80
2023/06/29 07:50:45;;;;;;;;;16.33;13.67;;;;;;;;5082234;27;47032;-79
2023/06/29 07:53:11;;;;;;;;;18.67;13.67;;;;;;;;5076134;27;45448;-81
2023/06/29 07:55:36;;;;;;;;;21.25;14.00;;;;;;;;5077213;27;45402;-80
2023/06/29 07:58:01;;;;;;;;;18.33;15.33;;;;;;;;5075855;27;45296;-79
2023/06/29 08:00:26;;;;;;;;;22.00;12.67;;;;;;;;5077625;27;46066;-80
2023/06/29 08:02:51;;;;;;;;;20.33;17.00;;;;;;;;5076862;27;45414;-80
2023/06/29 08:05:17;;;;;;;;;16.00;12.33;;;;;;;;5074386;27;45352;-81
2023/06/29 08:07:42;;;;;;;;;20.50;12.00;;;;;;;;5078595;27;45300;-80
2023/06/29 08:10:08;;;;;;;;;19.00;14.50;;;;;;;;5074324;27;47073;-80
2023/06/29 08:12:33;;;;;;;;;19.50;14.00;;;;;;;;5076791;27;45452;-80
2023/06/29 08:14:58;;;;;;;;;14.67;11.00;;;;;;;;5076438;27;45473;-81
2023/06/29 08:17:23;;;;;;;;;17.00;14.67;;;;;;;;5076462;27;45476;-82
2023/06/29 08:19:49;;;;;;;;;17.67;14.00;;;;;;;;5075974;27;45565;-79
2023/06/29 08:22:14;;;;;;;;;13.33;11.33;;;;;;;;5078049;27;45368;-81
2023/06/29 08:24:39;;;;;;;;;22.00;14.67;;;;;;;;5075731;27;45526;-79
2023/06/29 08:27:04;;;;;;;;;20.33;12.67;;;;;;;;5077206;27;45476;-80
2023/06/29 08:29:29;;;;;;;;;19.00;15.00;;;;;;;;5079900;27;47286;-80
2023/06/29 08:31:55;;;;;;;;;19.33;15.00;;;;;;;;5079690;27;45401;-80
2023/06/29 08:34:20;;;;;;;;;18.33;11.00;;;;;;;;5081380;27;45529;-80
2023/06/29 08:36:45;;;;;;;;;15.67;13.33;;;;;;;;5076169;27;45453;-79
2023/06/29 08:39:10;;;;;;;;;15.67;13.00;;;;;;;;5075336;27;46200;-79
2023/06/29 08:41:35;;;;;;;;;22.00;14.67;;;;;;;;5065275;27;45479;-80
2023/06/29 08:44:04;;;;;;;;;16.67;14.67;;;;;;;;5072338;27;45354;-82
2023/06/29 08:46:29;;;;;;;;;23.00;14.50;;;;;;;;5083370;27;45486;-82
2023/06/29 08:48:55;;;;;;;;;16.00;13.50;;;;;;;;5074225;27;46188;-83
2023/06/29 08:51:21;;;;;;;;;25.50;15.75;;;;;;;;5074248;27;45687;-81
2023/06/29 08:53:47;;;;;;;;;20.00;14.25;;;;;;;;5076992;27;45489;-83
2023/06/29 08:56:13;;;;;;;;;21.25;13.75;;;;;;;;5075955;27;45488;-84
2023/06/29 08:58:39;;;;;;;;;20.75;16.00;;;;;;;;5085487;27;45525;-82
2023/06/29 09:01:05;;;;;;;;;20.67;13.67;;;;;;;;5072322;27;45427;-83
2023/06/29 09:03:31;;;;;;;;;21.50;16.00;;;;;;;;5072659;27;45554;-83
2023/06/29 09:05:56;;;;;;;;;15.50;13.00;;;;;;;;5074709;27;45624;-82
2023/06/29 09:08:23;;;;;;;;;13.50;9.25;;;;;;;;5076468;27;46471;-84
2023/06/29 09:10:48;;;;;;;;;15.50;12.00;;;;;;;;5075389;27;45762;-82
2023/06/29 09:13:14;;;;;;;;;23.25;13.50;;;;;;;;5070000;27;45454;-82
2023/06/29 09:15:39;;;;;;;;;20.67;14.00;;;;;;;;5083597;27;45326;-81
2023/06/29 09:18:05;;;;;;;;;20.25;15.25;;;;;;;;5074455;27;45421;-82
2023/06/29 09:20:34;;;;;;;;;20.00;13.75;;;;;;;;5074526;27;45440;-81
2023/06/29 09:23:00;;;;;;;;;20.00;14.25;;;;;;;;5074287;27;45518;-83
2023/06/29 09:25:26;;;;;;;;;24.00;13.75;;;;;;;;5077368;27;45559;-84
2023/06/29 09:28:00;;;;;;;;;16.50;14.00;;;;;;;;5077398;27;45840;-83
2023/06/29 09:30:25;;;;;;;;;16.00;11.25;;;;;;;;5075105;27;45808;-84
2023/06/29 09:32:52;;;;;;;;;19.00;13.00;;;;;;;;5056848;28;45380;-83
2023/06/29 09:35:21;;;;;;;;;15.75;12.25;;;;;;;;5072374;27;45635;-83
2023/06/29 09:37:48;;;;;;;;;18.00;14.00;;;;;;;;5074393;27;46184;-82
2023/06/29 09:40:13;;;;;;;;;14.75;11.50;;;;;;;;5072574;27;45896;-81
2023/06/29 09:42:39;;;;;;;;;17.33;13.00;;;;;;;;5073323;27;45334;-84
2023/06/29 09:45:11;;;;;;;;;17.75;15.25;;;;;;;;5076829;27;45615;-84
2023/06/29 09:47:37;;;;;;;;;17.50;12.25;;;;;;;;5076041;27;46704;-84
2023/06/29 09:50:15;;;;;;;;;14.00;12.75;;;;;;;;5057704;27;46079;-82
2023/06/29 09:52:45;;;;;;;;;16.75;12.00;;;;;;;;5067866;27;45364;-81
2023/06/29 09:55:10;;;;;;;;;15.75;11.25;;;;;;;;5062717;27;45539;-82
2023/06/29 09:57:36;;;;;;;;;15.00;10.25;;;;;;;;5065162;27;47337;-83
2023/06/29 10:00:05;;;;;;;;;15.50;14.00;;;;;;;;5071655;27;45573;-81
2023/06/29 10:02:30;;;;;;;;;20.50;13.50;;;;;;;;5075826;27;45593;-83
2023/06/29 10:04:55;;;;;;;;;24.67;14.00;;;;;;;;5071637;27;45521;-84
2023/06/29 10:07:21;;;;;;;;;19.00;13.75;;;;;;;;5080786;27;46078;-81
2023/06/29 10:09:48;;;;;;;;;19.00;14.00;;;;;;;;5074123;28;45525;-81
2023/06/29 10:12:15;;;;;;;;;25.00;16.75;;;;;;;;5074510;27;45319;-80
2023/06/29 10:14:41;;;;;;;;;20.25;14.50;;;;;;;;5076620;27;45449;-82
2023/06/29 10:17:19;;;;;;;;;25.00;21.25;;;;;;;;5074493;27;45740;-82
2023/06/29 10:19:45;;;;;;;;;30.75;22.50;;;;;;;;5073253;27;45476;-82
2023/06/29 10:22:14;;;;;;;;;17.50;16.75;;;;;;;;5077155;27;45378;-82
2023/06/29 10:24:49;;;;;;;;;17.75;14.25;;;;;;;;5071314;27;45446;-83
2023/06/29 10:27:15;;;;;;;;;22.00;15.25;;;;;;;;5075124;27;46330;-80
2023/06/29 10:29:50;;;;;;;;;23.25;14.75;;;;;;;;5073915;27;46075;-81
2023/06/29 10:32:31;;;;;;;;;18.50;14.00;;;;;;;;5077363;27;45412;-81
2023/06/29 10:35:02;;;;;;;;;20.25;15.75;;;;;;;;5078918;27;45628;-83
2023/06/29 10:37:37;;;;;;;;;18.75;17.75;;;;;;;;5070382;27;47254;-82
2023/06/29 10:40:11;;;;;;;;;19.25;14.50;;;;;;;;5073781;27;45919;-82
2023/06/29 10:42:36;;;;;;;;;25.25;17.50;;;;;;;;5066155;28;45399;-81
2023/06/29 10:45:02;;;;;;;;;21.75;17.00;;;;;;;;5075147;27;45514;-82
2023/06/29 10:47:29;;;;;;;;;19.25;13.50;;;;;;;;5075767;27;46945;-84
2023/06/29 10:50:25;;;;;;;;;23.50;18.25;;;;;;;;5073482;27;45523;-81
2023/06/29 10:52:50;;;;;;;;;21.50;16.25;;;;;;;;5055405;27;45495;-80
2023/06/29 10:55:17;;;;;;;;;27.00;17.50;;;;;;;;5070101;27;45438;-82
2023/06/29 10:57:46;;;;;;;;;21.00;15.50;;;;;;;;5071524;27;47406;-82
2023/06/29 11:00:12;;;;;;;;;29.00;18.75;;;;;;;;5080734;27;45898;-81
2023/06/29 11:02:38;;;;;;;;;21.75;17.50;;;;;;;;5078245;27;45343;-82
2023/06/29 11:05:04;;;;;;;;;23.50;17.00;;;;;;;;5077455;27;45481;-82
2023/06/29 11:07:30;;;;;;;;;26.50;20.25;;;;;;;;5083353;27;45397;-82
2023/06/29 11:10:02;;;;;;;;;20.75;14.75;;;;;;;;5077421;27;45556;-82
2023/06/29 11:12:27;;;;;;;;;20.75;16.00;;;;;;;;5076144;27;45495;-82
2023/06/29 11:14:53;;;;;;;;;25.33;16.33;;;;;;;;5076837;27;45529;-82
2023/06/29 11:17:19;;;;;;;;;29.25;17.50;;;;;;;;5076686;27;46485;-82
2023/06/29 11:19:48;;;;;;;;;16.67;15.67;;;;;;;;5076964;27;45319;-83
2023/06/29 11:22:13;;;;;;;;;22.25;17.50;;;;;;;;5077821;27;45252;-82
2023/06/29 11:24:41;;;;;;;;;24.00;17.50;;;;;;;;5076452;27;45364;-82
2023/06/29 11:27:06;;;;;;;;;22.00;17.50;;;;;;;;5077045;27;45377;-83
2023/06/29 11:29:31;;;;;;;;;20.00;15.00;;;;;;;;5086616;27;45693;-83
2023/06/29 11:31:59;;;;;;;;;24.67;18.67;;;;;;;;5076475;27;45419;-83
2023/06/29 11:34:25;;;;;;;;;28.75;20.25;;;;;;;;5076607;27;45568;-82
2023/06/29 11:36:50;;;;;;;;;17.25;13.00;;;;;;;;5078176;27;46127;-82
2023/06/29 11:39:17;;;;;;;;;22.25;18.00;;;;;;;;5076942;27;45409;-83
2023/06/29 11:41:43;;;;;;;;;22.00;16.75;;;;;;;;5076263;27;45862;-83
2023/06/29 11:44:08;;;;;;;;;26.00;15.67;;;;;;;;5077851;27;45308;-81
2023/06/29 11:46:34;;;;;;;;;18.00;16.00;;;;;;;;5080305;27;45451;-85
2023/06/29 11:49:00;;;;;;;;;20.75;15.50;;;;;;;;5080848;27;45688;-82
2023/06/29 11:51:26;;;;;;;;;25.00;19.50;;;;;;;;5076188;27;45421;-82
2023/06/29 11:53:55;;;;;;;;;27.25;20.75;;;;;;;;5072560;27;45465;-82
2023/06/29 11:56:24;;;;;;;;;12.25;1.00;;;;;;;;5076010;27;46420;-83
2023/06/29 11:58:49;;;;;;;;;27.75;17.75;;;;;;;;5076731;27;45825;-84
2023/06/29 12:01:14;;;;;;;;;18.33;15.33;;;;;;;;5073532;27;45451;-84
2023/06/29 12:03:40;;;;;;;;;22.50;16.00;;;;;;;;5067377;27;45609;-85
2023/06/29 12:06:05;;;;;;;;;16.33;14.00;;;;;;;;5076578;27;46301;-83
2023/06/29 12:08:37;;;;;;;;;19.00;16.50;;;;;;;;5075891;27;45531;-85
2023/06/29 12:11:03;;;;;;;;;19.25;14.25;;;;;;;;5082348;27;45564;-85
2023/06/29 12:13:28;;;;;;;;;24.00;13.50;;;;;;;;5073926;27;45823;-84
2023/06/29 12:15:54;;;;;;;;;19.50;13.75;;;;;;;;5072899;27;46288;-83
2023/06/29 12:18:19;;;;;;;;;16.00;12.25;;;;;;;;5075779;27;45344;-82
2023/06/29 12:20:46;;;;;;;;;19.67;14.33;;;;;;;;5074944;27;45680;-82
2023/06/29 12:23:12;;;;;;;;;17.00;13.50;;;;;;;;5075563;28;45459;-85
2023/06/29 12:25:47;;;;;;;;;15.75;12.50;;;;;;;;5082014;27;46393;-85
2023/06/29 12:28:12;;;;;;;;;17.25;12.50;;;;;;;;5082757;27;45542;-83
2023/06/29 12:30:38;;;;;;;;;16.00;12.50;;;;;;;;5075667;27;45371;-83
2023/06/29 12:33:03;;;;;;;;;15.50;11.25;;;;;;;;5075679;27;45573;-84
2023/06/29 12:35:29;;;;;;;;;16.75;8.75;;;;;;;;5075987;27;46065;-85
2023/06/29 12:37:54;;;;;;;;;16.50;9.25;;;;;;;;5074041;27;45520;-84
2023/06/29 12:40:19;;;;;;;;;15.33;11.67;;;;;;;;5076267;28;45358;-85
2023/06/29 12:42:45;;;;;;;;;11.67;10.33;;;;;;;;5076272;28;45357;-84
2023/06/29 12:45:10;;;;;;;;;13.00;11.00;;;;;;;;5078358;27;46687;-84
2023/06/29 12:47:35;;;;;;;;;18.33;13.00;;;;;;;;5075721;27;45454;-85
2023/06/29 12:50:01;;;;;;;;;14.00;13.00;;;;;;;;5076515;27;45500;-85
2023/06/29 12:52:27;;;;;;;;;13.75;10.75;;;;;;;;5075301;27;45313;-86
2023/06/29 12:54:52;;;;;;;;;13.50;8.75;;;;;;;;5074735;27;47465;-84
2023/06/29 12:57:18;;;;;;;;;21.33;10.00;;;;;;;;5079709;27;45550;-85
2023/06/29 12:59:44;;;;;;;;;12.75;11.50;;;;;;;;5078313;27;46597;-85
2023/06/29 13:02:10;;;;;;;;;14.50;13.50;;;;;;;;5080175;27;45770;-84
2023/06/29 13:04:35;;;;;;;;;14.50;9.75;;;;;;;;5075579;27;47104;-85
2023/06/29 13:07:01;;;;;;;;;15.25;8.00;;;;;;;;5075182;27;45539;-85
2023/06/29 13:09:26;;;;;;;;;10.00;9.00;;;;;;;;5074462;27;45543;-85
2023/06/29 13:11:51;;;;;;;;;12.67;9.00;;;;;;;;5071934;27;45792;-84
2023/06/29 13:14:17;;;;;;;;;12.00;8.00;;;;;;;;5074291;27;45446;-85
2023/06/29 13:16:42;;;;;;;;;9.25;9.00;;;;;;;;5070295;27;45628;-85
2023/06/29 13:19:07;;;;;;;;;13.00;9.33;;;;;;;;5075167;27;46369;-85
2023/06/29 13:21:34;;;;;;;;;14.00;9.33;;;;;;;;5073031;27;46405;-84
2023/06/29 13:24:00;;;;;;;;;11.25;8.00;;;;;;;;5074324;27;45654;-82
2023/06/29 13:26:25;;;;;;;;;12.25;6.50;;;;;;;;5066162;27;45623;-83
2023/06/29 13:28:50;;;;;;;;;7.33;5.00;;;;;;;;5066556;27;45706;-85
2023/06/29 13:31:15;;;;;;;;;11.33;8.00;;;;;;;;5067082;27;45442;-83
2023/06/29 13:33:41;;;;;;;;;6.67;5.00;;;;;;;;5074908;27;45536;-85
2023/06/29 13:36:06;;;;;;;;;9.00;7.00;;;;;;;;5080795;27;45736;-84
2023/06/29 13:38:31;;;;;;;;;13.00;7.00;;;;;;;;5075425;27;45549;-89
2023/06/29 13:40:56;;;;;;;;;9.67;7.67;;;;;;;;5071035;27;45398;-84
2023/06/29 13:43:21;;;;;;;;;7.50;7.50;;;;;;;;5072256;27;45627;-85
2023/06/29 13:45:47;;;;;;;;;6.00;4.00;;;;;;;;5069857;28;45453;-84
2023/06/29 13:48:12;;;;;;;;;4.00;1.00;;;;;;;;5074296;28;45265;-85
2023/06/29 13:50:37;;;;;;;;;5.00;4.00;;;;;;;;5075140;28;45405;-82
2023/06/29 13:53:02;;;;;;;;;7.00;4.00;;;;;;;;5073623;27;45922;-83
2023/06/29 13:55:28;;;;;;;;;7.33;4.00;;;;;;;;5065951;27;45399;-88
2023/06/29 13:57:53;;;;;;;;;5.00;2.00;;;;;;;;5076081;27;45339;-88
2023/06/29 14:00:21;;;;;;;;;8.33;5.00;;;;;;;;5075166;28;45425;-89
2023/06/29 14:02:47;;;;;;;;;9.50;6.50;;;;;;;;5076541;27;45454;-87
2023/06/29 14:05:12;;;;;;;;;7.25;6.00;;;;;;;;5067625;27;45421;-88
2023/06/29 14:07:38;;;;;;;;;4.33;4.00;;;;;;;;5074495;27;45385;-87
2023/06/29 14:10:03;;;;;;;;;4.67;4.00;;;;;;;;5072786;27;45447;-90
2023/06/29 14:12:28;;;;;;;;;5.75;2.75;;;;;;;;5075372;27;46168;-87